createdAt,value
2023-05-06T00:02:26.102Z,95.37
2023-05-06T00:04:53.309Z,72.37
2023-05-06T00:07:20.424Z,107.97
2023-05-06T00:09:47.504Z,79.77
2023-05-06T00:12:15.922Z,116.33
2023-05-06T00:14:42.982Z,98.60
2023-05-06T00:17:10.098Z,113.53
2023-05-06T00:19:37.203Z,112.37
2023-05-06T00:22:04.260Z,103.47
2023-05-06T00:24:31.322Z,242.93
2023-05-06T00:26:58.472Z,264.13
2023-05-06T00:29:26.970Z,147.60
2023-05-06T00:31:54.171Z,141.87
2023-05-06T00:34:21.330Z,112.10
2023-05-06T00:36:48.379Z,155.00
2023-05-06T00:39:15.510Z,212.93
2023-05-06T00:41:42.610Z,116.00
2023-05-06T00:44:09.667Z,110.93
2023-05-06T00:46:38.133Z,223.83
2023-05-06T00:49:05.426Z,128.60
2023-05-06T00:51:32.651Z,122.40
2023-05-06T00:53:59.929Z,116.10
2023-05-06T00:56:27.124Z,158.17
2023-05-06T00:58:54.661Z,121.37
2023-05-06T01:01:21.764Z,671.20
2023-05-06T01:03:50.453Z,572.80
2023-05-06T01:06:19.969Z,228.97
2023-05-06T01:08:53.350Z,151.27
2023-05-06T01:11:24.990Z,143.13
2023-05-06T01:13:55.557Z,195.73
2023-05-06T01:16:23.809Z,252.30
2023-05-06T01:18:52.876Z,234.70
2023-05-06T01:21:19.974Z,127.10
2023-05-06T01:23:55.769Z,122.27
2023-05-06T01:26:22.911Z,161.90
2023-05-06T01:28:50.278Z,125.57
2023-05-06T01:31:21.921Z,119.33
2023-05-06T01:33:51.542Z,118.30
2023-05-06T01:36:20.588Z,126.10
2023-05-06T01:38:53.145Z,119.17
2023-05-06T01:41:21.925Z,139.93
2023-05-06T01:43:49.597Z,145.20
2023-05-06T01:46:18.720Z,141.87
2023-05-06T01:48:46.133Z,121.27
2023-05-06T01:51:13.401Z,137.87
2023-05-06T01:53:41.073Z,136.50
2023-05-06T01:56:08.153Z,142.97
2023-05-06T01:58:36.617Z,138.33
2023-05-06T02:01:04.907Z,111.43
2023-05-06T02:03:32.070Z,121.00
2023-05-06T02:05:59.275Z,103.53
2023-05-06T02:08:27.453Z,118.33
2023-05-06T02:10:54.656Z,123.30
2023-05-06T02:13:22.849Z,130.83
2023-05-06T02:15:54.264Z,131.57
2023-05-06T02:18:22.503Z,145.00
2023-05-06T02:20:50.468Z,141.57
2023-05-06T02:23:17.602Z,121.73
2023-05-06T02:25:44.680Z,149.63
2023-05-06T02:28:13.104Z,135.50
2023-05-06T02:30:40.187Z,108.07
2023-05-06T02:33:08.663Z,127.10
2023-05-06T02:35:35.674Z,127.83
2023-05-06T02:38:02.761Z,116.27
2023-05-06T02:40:29.857Z,136.20
2023-05-06T02:42:57.025Z,136.07
2023-05-06T02:45:24.137Z,138.63
2023-05-06T02:47:51.229Z,157.97
2023-05-06T02:50:19.750Z,171.27
2023-05-06T02:52:46.903Z,156.33
2023-05-06T02:55:14.000Z,221.57
2023-05-06T02:57:41.123Z,364.23
2023-05-06T03:00:08.873Z,144.40
2023-05-06T03:02:36.112Z,314.13
2023-05-06T03:05:03.249Z,382.17
2023-05-06T03:07:32.012Z,356.30
2023-05-06T03:09:59.131Z,153.20
2023-05-06T03:12:26.269Z,304.00
2023-05-06T03:14:53.346Z,140.07
2023-05-06T03:17:20.576Z,206.37
2023-05-06T03:19:48.917Z,262.67
2023-05-06T03:22:16.384Z,258.97
2023-05-06T03:24:46.911Z,116.40
2023-05-06T03:27:14.012Z,104.73
2023-05-06T03:29:42.701Z,88.43
2023-05-06T03:32:11.670Z,101.00
2023-05-06T03:34:42.772Z,142.97
2023-05-06T03:37:12.946Z,131.30
2023-05-06T03:39:47.201Z,99.10
2023-05-06T03:42:14.896Z,98.40
2023-05-06T03:44:42.454Z,177.73
2023-05-06T03:47:09.980Z,102.77
2023-05-06T03:49:37.785Z,119.27
2023-05-06T03:52:05.272Z,104.77
2023-05-06T03:54:32.415Z,95.20
2023-05-06T03:57:00.957Z,88.60
2023-05-06T03:59:28.046Z,92.33
2023-05-06T04:01:57.005Z,82.37
2023-05-06T04:04:24.355Z,73.07
2023-05-06T04:06:51.361Z,93.83
2023-05-06T04:09:18.583Z,87.67
2023-05-06T04:11:46.729Z,87.43
2023-05-06T04:14:17.771Z,73.73
2023-05-06T04:16:45.311Z,64.37
2023-05-06T04:19:12.404Z,71.37
2023-05-06T04:21:39.458Z,64.77
2023-05-06T04:24:10.126Z,74.87
2023-05-06T04:26:39.493Z,83.63
2023-05-06T04:29:07.085Z,84.67
2023-05-06T04:31:41.259Z,63.47
2023-05-06T04:34:11.765Z,74.73
2023-05-06T04:36:40.679Z,76.33
2023-05-06T04:39:40.320Z,76.70
2023-05-06T04:42:08.165Z,70.87
2023-05-06T04:44:48.203Z,77.53
2023-05-06T04:47:16.702Z,95.77
2023-05-06T04:49:47.524Z,82.97
2023-05-06T04:52:15.576Z,73.47
2023-05-06T04:54:45.403Z,88.83
2023-05-06T04:57:13.080Z,74.83
2023-05-06T04:59:42.089Z,97.63
2023-05-06T05:02:09.296Z,91.73
2023-05-06T05:04:38.519Z,96.87
2023-05-06T05:07:06.026Z,82.33
2023-05-06T05:09:33.134Z,79.50
2023-05-06T05:12:01.611Z,87.43
2023-05-06T05:14:29.446Z,83.70
2023-05-06T05:16:56.927Z,102.33
2023-05-06T05:19:24.074Z,96.90
2023-05-06T05:21:53.474Z,80.37
2023-05-06T05:24:21.218Z,114.83
2023-05-06T05:26:48.312Z,90.60
2023-05-06T05:29:17.102Z,118.03
2023-05-06T05:31:45.460Z,93.30
2023-05-06T05:34:13.064Z,90.83
2023-05-06T05:36:40.844Z,92.07
2023-05-06T05:39:12.335Z,83.10
2023-05-06T05:41:44.091Z,83.07
2023-05-06T05:44:11.429Z,83.47
2023-05-06T05:46:39.777Z,101.80
2023-05-06T05:49:07.354Z,90.03
2023-05-06T05:51:34.564Z,85.63
2023-05-06T05:54:04.490Z,81.23
2023-05-06T05:56:33.239Z,84.70
2023-05-06T05:59:01.150Z,80.43
2023-05-06T06:01:28.847Z,79.83
2023-05-06T06:03:56.747Z,79.50
2023-05-06T06:06:24.162Z,87.17
2023-05-06T06:08:52.415Z,97.57
2023-05-06T06:11:20.325Z,80.00
2023-05-06T06:13:48.748Z,89.07
2023-05-06T06:16:15.993Z,90.60
2023-05-06T06:18:43.117Z,85.13
2023-05-06T06:21:10.191Z,81.87
2023-05-06T06:23:37.299Z,68.80
2023-05-06T06:26:05.756Z,80.67
2023-05-06T06:28:33.749Z,68.87
2023-05-06T06:31:02.156Z,66.93
2023-05-06T06:33:29.273Z,73.13
2023-05-06T06:35:57.748Z,69.67
2023-05-06T06:38:24.800Z,63.73
2023-05-06T06:40:51.936Z,65.40
2023-05-06T06:43:19.006Z,68.67
2023-05-06T06:45:49.157Z,58.70
2023-05-06T06:48:17.733Z,60.87
2023-05-06T06:50:44.742Z,63.90
2023-05-06T06:53:11.803Z,58.93
2023-05-06T06:55:38.883Z,50.67
2023-05-06T06:58:06.007Z,58.23
2023-05-06T07:00:33.088Z,55.03
2023-05-06T07:03:00.207Z,55.70
2023-05-06T07:05:31.451Z,49.70
2023-05-06T07:07:58.501Z,48.70
2023-05-06T07:10:25.539Z,50.90
2023-05-06T07:12:52.774Z,50.57
2023-05-06T07:15:20.114Z,48.30
2023-05-06T07:17:47.214Z,45.20
2023-05-06T07:20:14.329Z,52.10
2023-05-06T07:22:42.759Z,44.53
2023-05-06T07:25:10.184Z,43.90
2023-05-06T07:27:37.413Z,39.10
2023-05-06T07:30:04.870Z,43.17
2023-05-06T07:32:31.978Z,39.73
2023-05-06T07:34:59.061Z,39.93
2023-05-06T07:37:26.128Z,22.03
2023-05-06T07:39:54.528Z,23.73
2023-05-06T07:42:21.597Z,23.00
2023-05-06T07:44:48.634Z,29.37
2023-05-06T07:47:25.896Z,22.73
2023-05-06T07:49:53.087Z,19.20
2023-05-06T07:52:20.242Z,17.20
2023-05-06T07:54:47.329Z,16.33
2023-05-06T07:57:15.935Z,21.70
2023-05-06T07:59:43.206Z,11.93
2023-05-06T08:02:10.305Z,11.50
2023-05-06T08:04:37.441Z,9.17
2023-05-06T08:07:04.542Z,12.00
2023-05-06T08:09:31.619Z,12.43
2023-05-06T08:11:58.710Z,8.00
2023-05-06T08:14:27.134Z,12.10
2023-05-06T08:16:54.198Z,12.07
2023-05-06T08:19:21.273Z,14.10
2023-05-06T08:21:48.431Z,10.00
2023-05-06T08:24:15.615Z,10.13
2023-05-06T08:26:42.711Z,10.67
2023-05-06T08:29:09.829Z,8.43
2023-05-06T08:31:38.264Z,9.60
2023-05-06T08:34:06.328Z,11.20
2023-05-06T08:36:33.411Z,13.73
2023-05-06T08:39:00.489Z,10.20
2023-05-06T08:41:29.703Z,11.07
2023-05-06T08:43:57.794Z,12.13
2023-05-06T08:46:24.988Z,12.47
2023-05-06T08:48:53.620Z,8.67
2023-05-06T08:51:23.715Z,8.50
2023-05-06T08:53:52.808Z,7.87
2023-05-06T08:56:20.975Z,6.03
2023-05-06T08:58:48.927Z,7.10
2023-05-06T09:01:16.226Z,8.77
2023-05-06T09:03:43.464Z,6.53
2023-05-06T09:06:11.882Z,7.63
2023-05-06T09:08:39.007Z,8.93
2023-05-06T09:11:19.440Z,8.57
2023-05-06T09:13:46.541Z,6.10
2023-05-06T09:16:26.720Z,5.40
2023-05-06T09:18:53.775Z,6.30
2023-05-06T09:21:22.195Z,7.97
2023-05-06T09:23:49.323Z,5.00
2023-05-06T09:26:16.385Z,4.73
2023-05-06T09:28:46.153Z,4.77
2023-05-06T09:31:15.167Z,6.93
2023-05-06T09:33:42.315Z,6.37
2023-05-06T09:36:09.916Z,4.87
2023-05-06T09:38:38.296Z,6.40
2023-05-06T09:41:05.669Z,4.80
2023-05-06T09:43:32.763Z,8.13
2023-05-06T09:45:59.931Z,4.67
2023-05-06T09:48:29.111Z,5.53
2023-05-06T09:50:56.232Z,4.73
2023-05-06T09:53:24.154Z,5.87
2023-05-06T09:55:53.458Z,5.00
2023-05-06T09:58:21.310Z,4.17
2023-05-06T10:00:48.542Z,4.23
2023-05-06T10:03:16.378Z,4.97
2023-05-06T10:05:43.630Z,3.07
2023-05-06T10:08:11.290Z,4.37
2023-05-06T10:10:41.110Z,3.07
2023-05-06T10:13:09.686Z,3.73
2023-05-06T10:15:38.126Z,3.50
2023-05-06T10:18:06.353Z,4.00
2023-05-06T10:20:34.913Z,4.10
2023-05-06T10:23:04.098Z,3.50
2023-05-06T10:25:36.862Z,4.57
2023-05-06T10:28:06.277Z,5.00
2023-05-06T10:30:38.156Z,3.03
2023-05-06T10:33:06.793Z,3.10
2023-05-06T10:35:38.968Z,5.60
2023-05-06T10:38:08.551Z,5.90
2023-05-06T10:40:35.612Z,5.60
2023-05-06T10:43:21.469Z,4.53
2023-05-06T10:46:03.424Z,5.03
2023-05-06T10:48:32.272Z,5.00
2023-05-06T10:51:17.728Z,3.13
2023-05-06T10:53:58.554Z,3.15
2023-05-06T10:56:25.859Z,4.43
2023-05-06T10:58:54.185Z,3.65
2023-05-06T11:01:26.862Z,2.28
2023-05-06T11:03:55.504Z,2.85
2023-05-06T11:06:40.485Z,4.85
2023-05-06T11:09:15.496Z,2.50
2023-05-06T11:11:49.817Z,2.63
2023-05-06T11:14:25.640Z,3.05
2023-05-06T11:16:53.333Z,5.40
2023-05-06T11:19:23.660Z,3.53
2023-05-06T11:21:50.962Z,2.85
2023-05-06T11:24:23.212Z,3.03
2023-05-06T11:26:50.399Z,2.15
2023-05-06T11:29:17.828Z,3.05
2023-05-06T11:31:45.475Z,2.85
2023-05-06T11:34:14.149Z,2.30
2023-05-06T11:36:49.359Z,3.88
2023-05-06T11:39:16.387Z,2.53
2023-05-06T11:41:43.454Z,2.45
2023-05-06T11:44:11.652Z,4.10
2023-05-06T11:46:38.833Z,5.22
2023-05-06T11:49:05.962Z,2.58
2023-05-06T11:51:32.995Z,4.95
2023-05-06T11:54:11.206Z,5.18
2023-05-06T11:56:48.300Z,2.55
2023-05-06T11:59:15.388Z,3.78
2023-05-06T12:01:42.971Z,4.13
2023-05-06T12:04:10.730Z,2.17
2023-05-06T12:06:38.193Z,3.72
2023-05-06T12:09:06.259Z,1.77
2023-05-06T12:11:35.603Z,4.18
2023-05-06T12:14:03.303Z,5.95
2023-05-06T12:16:30.635Z,3.75
2023-05-06T12:18:57.953Z,3.47
2023-05-06T12:21:25.037Z,2.80
2023-05-06T12:23:52.379Z,3.63
2023-05-06T12:26:19.522Z,2.55
2023-05-06T12:28:48.058Z,2.40
2023-05-06T12:31:18.645Z,3.67
2023-05-06T12:33:46.376Z,2.17
2023-05-06T12:36:13.560Z,2.83
2023-05-06T12:38:49.874Z,5.40
2023-05-06T12:41:16.945Z,1.95
2023-05-06T12:43:43.975Z,1.75
2023-05-06T12:46:12.460Z,1.98
2023-05-06T12:48:39.577Z,2.22
2023-05-06T12:51:19.162Z,2.22
2023-05-06T12:53:46.384Z,1.52
2023-05-06T12:56:13.459Z,2.97
2023-05-06T12:58:40.596Z,1.75
2023-05-06T13:01:07.819Z,5.88
2023-05-06T13:03:38.388Z,3.10
2023-05-06T13:06:06.009Z,4.15
2023-05-06T13:08:33.117Z,3.78
2023-05-06T13:11:00.178Z,1.40
2023-05-06T13:13:27.333Z,1.60
2023-05-06T13:15:54.426Z,1.92
2023-05-06T13:18:21.434Z,3.00
2023-05-06T13:20:49.907Z,2.38
2023-05-06T13:23:16.899Z,5.28
2023-05-06T13:26:00.304Z,4.00
2023-05-06T13:28:31.171Z,2.08
2023-05-06T13:30:58.224Z,4.43
2023-05-06T13:33:25.356Z,4.15
2023-05-06T13:35:53.741Z,2.92
2023-05-06T13:38:20.843Z,2.63
2023-05-06T13:40:48.144Z,2.45
2023-05-06T13:43:15.324Z,3.57
2023-05-06T13:45:42.419Z,4.30
2023-05-06T13:48:09.493Z,2.80
2023-05-06T13:50:36.559Z,3.83
2023-05-06T13:53:05.191Z,4.17
2023-05-06T13:55:32.200Z,3.90
2023-05-06T13:57:59.263Z,3.97
2023-05-06T14:00:26.461Z,2.20
2023-05-06T14:02:53.591Z,3.40
2023-05-06T14:05:20.788Z,2.87
2023-05-06T14:07:48.026Z,6.00
2023-05-06T14:10:16.477Z,3.20
2023-05-06T14:12:43.555Z,5.93
2023-05-06T14:15:11.277Z,3.97
2023-05-06T14:17:38.676Z,2.47
2023-05-06T14:20:06.381Z,2.30
2023-05-06T14:22:33.579Z,2.93
2023-05-06T14:25:00.695Z,2.80
2023-05-06T14:27:29.123Z,2.30
2023-05-06T14:29:56.150Z,3.03
2023-05-06T14:32:23.243Z,5.20
2023-05-06T14:34:50.330Z,2.20
2023-05-06T14:37:17.390Z,6.33
2023-05-06T14:39:44.511Z,2.60
2023-05-06T14:42:11.595Z,2.43
2023-05-06T14:44:39.990Z,5.03
2023-05-06T14:47:07.041Z,3.80
2023-05-06T14:49:34.174Z,1.77
2023-05-06T14:52:01.233Z,3.10
2023-05-06T14:54:28.303Z,3.37
2023-05-06T14:56:55.406Z,5.83
2023-05-06T14:59:22.423Z,2.53
2023-05-06T15:01:50.845Z,1.70
2023-05-06T15:04:17.949Z,2.67
2023-05-06T15:06:44.969Z,1.90
2023-05-06T15:09:12.026Z,2.50
2023-05-06T15:11:39.068Z,2.37
2023-05-06T15:14:06.120Z,2.63
2023-05-06T15:16:33.211Z,4.37
2023-05-06T15:19:01.606Z,4.23
2023-05-06T15:21:28.684Z,8.57
2023-05-06T15:23:55.740Z,3.33
2023-05-06T15:26:22.865Z,4.50
2023-05-06T15:28:49.933Z,6.20
2023-05-06T15:31:17.071Z,4.50
2023-05-06T15:33:44.087Z,5.70
2023-05-06T15:36:12.650Z,3.97
2023-05-06T15:38:57.141Z,4.77
2023-05-06T15:41:26.591Z,5.50
2023-05-06T15:43:53.899Z,13.47
2023-05-06T15:46:20.985Z,6.70
2023-05-06T15:48:51.913Z,4.00
2023-05-06T15:51:25.941Z,8.00
2023-05-06T15:53:52.973Z,5.80
2023-05-06T15:56:20.263Z,6.50
2023-05-06T15:58:48.323Z,4.80
2023-05-06T16:01:15.423Z,6.10
2023-05-06T16:03:43.755Z,5.33
2023-05-06T16:06:11.360Z,7.30
2023-05-06T16:08:39.767Z,6.00
2023-05-06T16:11:07.131Z,4.67
2023-05-06T16:13:34.179Z,4.17
2023-05-06T16:16:01.641Z,6.17
2023-05-06T16:18:28.817Z,3.87
2023-05-06T16:20:55.927Z,3.97
2023-05-06T16:23:23.041Z,6.13
2023-05-06T16:25:51.371Z,4.17
2023-05-06T16:28:18.387Z,3.63
2023-05-06T16:30:45.442Z,7.70
2023-05-06T16:33:12.739Z,6.53
2023-05-06T16:35:39.775Z,2.73
2023-05-06T16:38:06.874Z,4.37
2023-05-06T16:40:40.267Z,3.00
2023-05-06T16:43:08.781Z,2.80
2023-05-06T16:45:35.843Z,4.37
2023-05-06T16:48:02.977Z,2.67
2023-05-06T16:50:30.052Z,3.23
2023-05-06T16:52:57.059Z,3.00
2023-05-06T16:55:24.118Z,4.40
2023-05-06T16:57:51.234Z,3.60
2023-05-06T17:00:20.080Z,7.40
2023-05-06T17:02:47.244Z,7.30
2023-05-06T17:05:14.318Z,5.27
2023-05-06T17:07:41.381Z,4.10
2023-05-06T17:10:09.035Z,12.10
2023-05-06T17:12:36.261Z,9.30
2023-05-06T17:15:03.636Z,5.20
2023-05-06T17:17:32.105Z,2.83
2023-05-06T17:19:59.314Z,5.17
2023-05-06T17:22:26.693Z,2.90
2023-05-06T17:24:53.802Z,3.33
2023-05-06T17:27:20.857Z,8.60
2023-05-06T17:29:47.908Z,3.90
2023-05-06T17:32:14.971Z,3.20
2023-05-06T17:34:43.364Z,2.40
2023-05-06T17:37:10.429Z,4.60
2023-05-06T17:39:37.715Z,4.90
2023-05-06T17:42:04.920Z,2.83
2023-05-06T17:44:32.003Z,5.53
2023-05-06T17:46:59.180Z,8.17
2023-05-06T17:49:26.326Z,7.90
2023-05-06T17:51:54.704Z,9.07
2023-05-06T17:54:21.791Z,8.60
2023-05-06T17:56:48.838Z,6.57
2023-05-06T17:59:15.901Z,4.77
2023-05-06T18:01:43.119Z,7.70
2023-05-06T18:04:10.329Z,5.37
2023-05-06T18:06:37.410Z,5.27
2023-05-06T18:09:05.828Z,5.93
2023-05-06T18:11:32.962Z,5.57
2023-05-06T18:14:00.149Z,6.90
2023-05-06T18:16:27.381Z,5.70
2023-05-06T18:18:54.475Z,7.17
2023-05-06T18:21:21.600Z,5.77
2023-05-06T18:23:49.859Z,4.60
2023-05-06T18:26:39.533Z,8.10
2023-05-06T18:29:07.277Z,7.23
2023-05-06T18:31:34.352Z,7.27
2023-05-06T18:34:01.436Z,8.23
2023-05-06T18:36:28.542Z,6.90
2023-05-06T18:38:55.621Z,7.00
2023-05-06T18:41:23.963Z,6.93
2023-05-06T18:43:51.042Z,8.43
2023-05-06T18:46:18.189Z,5.30
2023-05-06T18:48:45.448Z,8.10
2023-05-06T18:51:13.034Z,8.23
2023-05-06T18:53:40.362Z,5.93
2023-05-06T18:56:07.723Z,6.83
2023-05-06T18:58:37.255Z,7.30
2023-05-06T19:01:04.398Z,6.90
2023-05-06T19:03:32.592Z,8.03
2023-05-06T19:06:00.144Z,6.50
2023-05-06T19:08:27.422Z,7.17
2023-05-06T19:10:54.428Z,6.13
2023-05-06T19:13:21.543Z,5.23
2023-05-06T19:15:50.092Z,8.27
2023-05-06T19:18:17.494Z,401.90
2023-05-06T19:20:44.611Z,841.97
2023-05-06T19:23:11.671Z,415.07
2023-05-06T19:25:39.256Z,186.10
2023-05-06T19:28:06.733Z,35.83
2023-05-06T19:30:34.997Z,14.70
2023-05-06T19:33:03.511Z,14.67
2023-05-06T19:35:30.823Z,8.07
2023-05-06T19:37:58.140Z,11.47
2023-05-06T19:40:25.234Z,8.63
2023-05-06T19:42:52.460Z,8.27
2023-05-06T19:45:19.684Z,382.93
2023-05-06T19:47:46.936Z,31.00
2023-05-06T19:50:15.447Z,9.73
2023-05-06T19:52:42.476Z,9.90
2023-05-06T19:55:10.237Z,12.87
2023-05-06T19:57:37.488Z,14.57
2023-05-06T20:00:05.209Z,10.13
2023-05-06T20:02:32.460Z,11.10
2023-05-06T20:04:59.677Z,11.83
2023-05-06T20:07:28.118Z,11.53
2023-05-06T20:09:55.167Z,10.33
2023-05-06T20:12:22.409Z,10.30
2023-05-06T20:14:49.502Z,8.43
2023-05-06T20:17:16.563Z,9.77
2023-05-06T20:19:43.666Z,10.47
2023-05-06T20:22:10.796Z,14.00
2023-05-06T20:24:41.159Z,10.47
2023-05-06T20:27:08.305Z,8.40
2023-05-06T20:29:35.370Z,6.93
2023-05-06T20:32:02.547Z,9.80
2023-05-06T20:34:30.363Z,7.37
2023-05-06T20:36:57.435Z,8.80
2023-05-06T20:39:24.531Z,8.90
2023-05-06T20:41:52.958Z,9.80
2023-05-06T20:44:19.998Z,7.47
2023-05-06T20:46:46.999Z,8.53
2023-05-06T20:49:14.037Z,9.10
2023-05-06T20:51:41.075Z,7.17
2023-05-06T20:54:08.206Z,15.73
2023-05-06T20:56:35.272Z,8.40
2023-05-06T20:59:03.776Z,8.00
2023-05-06T21:01:30.944Z,10.90
2023-05-06T21:03:58.056Z,7.80
2023-05-06T21:06:25.085Z,11.37
2023-05-06T21:08:52.136Z,7.93
2023-05-06T21:11:19.200Z,5.93
2023-05-06T21:13:48.139Z,11.70
2023-05-06T21:16:17.222Z,13.63
2023-05-06T21:18:44.284Z,11.30
2023-05-06T21:21:11.400Z,5.80
2023-05-06T21:23:38.484Z,8.87
2023-05-06T21:26:05.590Z,6.90
2023-05-06T21:28:32.734Z,7.63
2023-05-06T21:30:59.820Z,7.23
2023-05-06T21:33:28.250Z,8.57
2023-05-06T21:35:55.293Z,8.10
2023-05-06T21:38:22.312Z,7.63
2023-05-06T21:40:49.387Z,8.50
2023-05-06T21:43:16.442Z,8.10
2023-05-06T21:45:43.501Z,6.37
2023-05-06T21:48:10.645Z,8.90
2023-05-06T21:50:39.228Z,10.83
2023-05-06T21:53:06.290Z,6.20
2023-05-06T21:55:33.410Z,5.90
2023-05-06T21:58:00.468Z,12.77
2023-05-06T22:00:27.743Z,8.63
2023-05-06T22:02:54.965Z,9.90
2023-05-06T22:05:22.081Z,30.90
2023-05-06T22:07:50.587Z,32.70
2023-05-06T22:10:17.693Z,42.60
2023-05-06T22:12:44.759Z,14.90
2023-05-06T22:15:12.277Z,15.70
2023-05-06T22:17:39.518Z,15.33
2023-05-06T22:20:07.251Z,10.83
2023-05-06T22:22:34.609Z,13.73
2023-05-06T22:25:03.889Z,11.53
2023-05-06T22:27:30.949Z,8.77
2023-05-06T22:29:58.060Z,8.40
2023-05-06T22:32:25.231Z,6.97
2023-05-06T22:34:52.288Z,7.40
2023-05-06T22:37:19.288Z,6.90
2023-05-06T22:39:46.348Z,11.10
2023-05-06T22:42:14.744Z,8.27
2023-05-06T22:44:41.792Z,13.00
2023-05-06T22:47:08.933Z,6.43
2023-05-06T22:49:36.002Z,9.10
2023-05-06T22:52:03.066Z,11.50
2023-05-06T22:54:30.144Z,6.70
2023-05-06T22:56:57.218Z,10.17
2023-05-06T22:59:25.664Z,6.37
2023-05-06T23:01:52.765Z,14.37
2023-05-06T23:04:19.858Z,9.43
2023-05-06T23:06:47.011Z,7.80
2023-05-06T23:09:14.228Z,8.57
2023-05-06T23:11:41.371Z,8.63
2023-05-06T23:14:08.379Z,5.10
2023-05-06T23:16:36.811Z,5.90
2023-05-06T23:19:03.921Z,5.63
2023-05-06T23:21:31.004Z,5.73
2023-05-06T23:23:58.030Z,6.83
2023-05-06T23:26:25.219Z,6.00
2023-05-06T23:28:52.370Z,7.40
2023-05-06T23:31:19.494Z,9.13
2023-05-06T23:33:48.066Z,10.90
2023-05-06T23:36:16.397Z,7.50
2023-05-06T23:38:43.431Z,5.20
2023-05-06T23:41:11.174Z,7.53
2023-05-06T23:43:38.246Z,7.27
2023-05-06T23:46:05.380Z,12.80
2023-05-06T23:48:33.982Z,8.70
2023-05-06T23:51:02.398Z,7.23
2023-05-06T23:53:29.461Z,8.17
2023-05-06T23:55:56.542Z,5.93
2023-05-06T23:58:23.578Z,7.00
